DLH7769 EDDF-LEBB
Flight info
| Callsign | DLH7769 |
|---|---|
| Flight time | N/A |
| Altitude | 37000 |
| Route | SOBRA2L/18 SOBRA Y180 DIK UN857 TOLVU DCT RAPOR DCT GIMER/N0448F350 DCT ESTOC UT300 PON UN872 GODIX/N0446F310 UN872 TERPO DCT PEXOD DCT NENEM N867 MAPAX |
| Aircraft | A320/M-SDE3FGHIRWY/LB1 |
Departure
| Time | N/A |
|---|---|
| Airport | Frankfurt Main Airport (EDDF) |
Arrival
| Time | 2026-04-30 18:29 |
|---|---|
| Airport | Bilbao Airport (LEBB) |
| Time | Latitude | Longitude | Altitude | Speed | Heading |
|---|---|---|---|---|---|
| 2026-04-30 17:39 | 47.17756 | -2.02399 | 37113 ft | 438 kts | 200° |
| 2026-04-30 17:42 | 46.89233 | -2.18129 | 37117 ft | 441 kts | 201° |
| 2026-04-30 17:43 | 46.74843 | -2.25973 | 37123 ft | 442 kts | 201° |
| 2026-04-30 17:44 | 46.57555 | -2.35361 | 37121 ft | 442 kts | 201° |
| 2026-04-30 17:47 | 46.31564 | -2.49332 | 37116 ft | 443 kts | 202° |
| 2026-04-30 17:48 | 46.11593 | -2.59991 | 36618 ft | 444 kts | 202° |
| 2026-04-30 17:49 | 45.99949 | -2.66150 | 35310 ft | 448 kts | 202° |
| 2026-04-30 17:50 | 45.88329 | -2.72260 | 34065 ft | 452 kts | 202° |
| 2026-04-30 17:51 | 45.79451 | -2.76932 | 33001 ft | 454 kts | 202° |
| 2026-04-30 17:52 | 45.70544 | -2.81603 | 31987 ft | 454 kts | 202° |
| 2026-04-30 17:53 | 45.55836 | -2.89264 | 30374 ft | 446 kts | 202° |
| 2026-04-30 17:54 | 45.44300 | -2.95262 | 28941 ft | 436 kts | 202° |
| 2026-04-30 17:55 | 45.33959 | -3.00580 | 27681 ft | 427 kts | 200° |
| 2026-04-30 17:56 | 45.22295 | -3.02734 | 26351 ft | 420 kts | 185° |
| 2026-04-30 17:57 | 45.13634 | -3.03661 | 25379 ft | 413 kts | 185° |
| 2026-04-30 17:58 | 45.05104 | -3.04566 | 24471 ft | 407 kts | 185° |
| 2026-04-30 17:59 | 44.93911 | -3.05763 | 23179 ft | 400 kts | 185° |
| 2026-04-30 18:00 | 44.82896 | -3.06935 | 21803 ft | 394 kts | 185° |
| 2026-04-30 18:00 | 44.74790 | -3.07785 | 20819 ft | 389 kts | 185° |
| 2026-04-30 18:01 | 44.69419 | -3.08344 | 20173 ft | 385 kts | 185° |
| 2026-04-30 18:02 | 44.61447 | -3.09173 | 19235 ft | 381 kts | 185° |
| 2026-04-30 18:02 | 44.53567 | -3.10004 | 18312 ft | 377 kts | 186° |
| 2026-04-30 18:03 | 44.45784 | -3.10831 | 17424 ft | 371 kts | 186° |
| 2026-04-30 18:04 | 44.38109 | -3.11622 | 16570 ft | 366 kts | 186° |
| 2026-04-30 18:05 | 44.28050 | -3.12671 | 15475 ft | 359 kts | 186° |
| 2026-04-30 18:06 | 44.18176 | -3.13694 | 14411 ft | 353 kts | 186° |
| 2026-04-30 18:07 | 44.08479 | -3.14694 | 13403 ft | 346 kts | 186° |
| 2026-04-30 18:08 | 44.01348 | -3.13928 | 12623 ft | 342 kts | 169° |
| 2026-04-30 18:09 | 43.92182 | -3.11272 | 11674 ft | 323 kts | 170° |
| 2026-04-30 18:10 | 43.83892 | -3.08884 | 11176 ft | 295 kts | 170° |
| 2026-04-30 18:11 | 43.75893 | -3.06594 | 10689 ft | 291 kts | 170° |
| 2026-04-30 18:11 | 43.70050 | -3.04558 | 10212 ft | 291 kts | 155° |
| 2026-04-30 18:12 | 43.65993 | -2.98542 | 9674 ft | 294 kts | 113° |
| 2026-04-30 18:13 | 43.65381 | -2.92989 | 9433 ft | 296 kts | 90° |
| 2026-04-30 18:13 | 43.64996 | -2.85490 | 9080 ft | 293 kts | 99° |
| 2026-04-30 18:14 | 43.63969 | -2.79094 | 8787 ft | 291 kts | 108° |
| 2026-04-30 18:15 | 43.61770 | -2.71332 | 8398 ft | 289 kts | 118° |
| 2026-04-30 18:15 | 43.58657 | -2.64269 | 8020 ft | 286 kts | 128° |
| 2026-04-30 18:16 | 43.56138 | -2.60040 | 7764 ft | 284 kts | 134° |
| 2026-04-30 18:16 | 43.53311 | -2.56261 | 7518 ft | 283 kts | 141° |
| 2026-04-30 18:17 | 43.51790 | -2.54553 | 7402 ft | 282 kts | 144° |
| 2026-04-30 18:17 | 43.50205 | -2.52964 | 7277 ft | 281 kts | 147° |
| 2026-04-30 18:17 | 43.46941 | -2.50227 | 7036 ft | 269 kts | 154° |
| 2026-04-30 18:18 | 43.45269 | -2.49085 | 7003 ft | 268 kts | 157° |
| 2026-04-30 18:18 | 43.43561 | -2.48071 | 7006 ft | 268 kts | 160° |
| 2026-04-30 18:18 | 43.41818 | -2.47183 | 7008 ft | 267 kts | 163° |
| 2026-04-30 18:18 | 43.40043 | -2.46422 | 7007 ft | 267 kts | 166° |
| 2026-04-30 18:19 | 43.38257 | -2.45792 | 7007 ft | 265 kts | 169° |
| 2026-04-30 18:19 | 43.36455 | -2.45296 | 7008 ft | 264 kts | 172° |
| 2026-04-30 18:19 | 43.34642 | -2.44936 | 7008 ft | 263 kts | 175° |
| 2026-04-30 18:19 | 43.32819 | -2.44710 | 7005 ft | 263 kts | 178° |
| 2026-04-30 18:20 | 43.30996 | -2.44608 | 6912 ft | 261 kts | 181° |
| 2026-04-30 18:20 | 43.29176 | -2.44639 | 6911 ft | 262 kts | 184° |
| 2026-04-30 18:20 | 43.27360 | -2.44807 | 6912 ft | 261 kts | 187° |
| 2026-04-30 18:20 | 43.25592 | -2.45094 | 6914 ft | 252 kts | 190° |
| 2026-04-30 18:21 | 43.23892 | -2.45480 | 6900 ft | 250 kts | 192° |
| 2026-04-30 18:21 | 43.22193 | -2.45978 | 6903 ft | 249 kts | 196° |
| 2026-04-30 18:21 | 43.20642 | -2.46914 | 6900 ft | 239 kts | 217° |
| 2026-04-30 18:21 | 43.19494 | -2.48508 | 6824 ft | 234 kts | 237° |
| 2026-04-30 18:22 | 43.18730 | -2.50470 | 6709 ft | 234 kts | 239° |
| 2026-04-30 18:22 | 43.17151 | -2.54309 | 6428 ft | 230 kts | 263° |
| 2026-04-30 18:22 | 43.17342 | -2.56448 | 6168 ft | 227 kts | 291° |
| 2026-04-30 18:23 | 43.18037 | -2.58391 | 5858 ft | 228 kts | 297° |
| 2026-04-30 18:23 | 43.18768 | -2.60325 | 5510 ft | 229 kts | 297° |
| 2026-04-30 18:23 | 43.19488 | -2.62254 | 5172 ft | 226 kts | 298° |
| 2026-04-30 18:23 | 43.20194 | -2.64161 | 4828 ft | 222 kts | 300° |
| 2026-04-30 18:24 | 43.21544 | -2.67810 | 4194 ft | 204 kts | 299° |
| 2026-04-30 18:24 | 43.22181 | -2.69533 | 3890 ft | 200 kts | 300° |
| 2026-04-30 18:24 | 43.22796 | -2.71198 | 3573 ft | 190 kts | 300° |
| 2026-04-30 18:25 | 43.23373 | -2.72760 | 3290 ft | 178 kts | 300° |
| 2026-04-30 18:25 | 43.24417 | -2.75592 | 2790 ft | 154 kts | 300° |
| 2026-04-30 18:25 | 43.24887 | -2.76864 | 2553 ft | 146 kts | 300° |
| 2026-04-30 18:26 | 43.25779 | -2.79283 | 2140 ft | 140 kts | 300° |
| 2026-04-30 18:26 | 43.26220 | -2.80478 | 1923 ft | 140 kts | 302° |
| 2026-04-30 18:26 | 43.26658 | -2.81666 | 1720 ft | 139 kts | 300° |
| 2026-04-30 18:27 | 43.27518 | -2.84005 | 1295 ft | 136 kts | 300° |
| 2026-04-30 18:27 | 43.27945 | -2.85165 | 1085 ft | 135 kts | 299° |
| 2026-04-30 18:28 | 43.28775 | -2.87429 | 679 ft | 130 kts | 300° |
| 2026-04-30 18:28 | 43.29172 | -2.88508 | 464 ft | 124 kts | 301° |
| 2026-04-30 18:28 | 43.29975 | -2.90706 | 159 ft | 129 kts | 301° |
| 2026-04-30 18:29 | 43.30369 | -2.91743 | 123 ft | 109 kts | 300° |
| 2026-04-30 18:29 | 43.30724 | -2.92494 | 124 ft | 13 kts | 342° |
| 2026-04-30 18:30 | 43.30779 | -2.92501 | 128 ft | 0 kts | 18° |
| 2026-04-30 18:30 | 43.30783 | -2.92498 | 128 ft | 5 kts | 26° |
| 2026-04-30 18:31 | 43.30784 | -2.92389 | 128 ft | 12 kts | 115° |
| 2026-04-30 18:31 | 43.30714 | -2.92199 | 127 ft | 10 kts | 117° |
| 2026-04-30 18:32 | 43.30657 | -2.92044 | 128 ft | 8 kts | 117° |
| 2026-04-30 18:32 | 43.30631 | -2.91974 | 125 ft | 9 kts | 117° |
| 2026-04-30 18:32 | 43.30507 | -2.91634 | 125 ft | 24 kts | 116° |
| 2026-04-30 18:33 | 43.30444 | -2.91463 | 124 ft | 21 kts | 117° |
| 2026-04-30 18:33 | 43.30320 | -2.91124 | 125 ft | 13 kts | 116° |
| 2026-04-30 18:33 | 43.30321 | -2.91032 | 126 ft | 11 kts | 45° |
| 2026-04-30 18:34 | 43.30388 | -2.90978 | 122 ft | 11 kts | 40° |
| 2026-04-30 18:34 | 43.30397 | -2.90776 | 127 ft | 10 kts | 113° |
| 2026-04-30 18:34 | 43.30394 | -2.90725 | 126 ft | 4 kts | 59° |
| 2026-04-30 18:35 | 43.30416 | -2.90703 | 125 ft | 4 kts | 29° |
| 2026-04-30 18:35 | 43.30435 | -2.90690 | 126 ft | 3 kts | 26° |
| 2026-04-30 18:35 | 43.30444 | -2.90683 | 124 ft | 0 kts | 26° |